sensor_id;sensor_type;location;lat;lon;timestamp;P1;durP1;ratioP1;P2;durP2;ratioP2
55350;SDS011;62194;49.480;10.986;2023-05-23T00:00:04;9.63;;;8.60;;
55350;SDS011;62194;49.480;10.986;2023-05-23T00:00:10;10.40;;;8.70;;
55350;SDS011;62194;49.480;10.986;2023-05-23T00:00:18;10.53;;;8.70;;
55350;SDS011;62194;49.480;10.986;2023-05-23T00:00:23;10.97;;;8.90;;
55350;SDS011;62194;49.480;10.986;2023-05-23T00:00:29;10.97;;;9.00;;
55350;SDS011;62194;49.480;10.986;2023-05-23T00:00:37;10.73;;;9.01;;
55350;SDS011;62194;49.480;10.986;2023-05-23T00:00:42;10.33;;;9.20;;
55350;SDS011;62194;49.480;10.986;2023-05-23T00:00:47;10.90;;;9.43;;
55350;SDS011;62194;49.480;10.986;2023-05-23T00:00:55;11.15;;;9.52;;
55350;SDS011;62194;49.480;10.986;2023-05-23T00:01:02;10.87;;;9.40;;
55350;SDS011;62194;49.480;10.986;2023-05-23T00:01:07;10.60;;;9.23;;
55350;SDS011;62194;49.480;10.986;2023-05-23T00:01:13;10.55;;;9.13;;
55350;SDS011;62194;49.480;10.986;2023-05-23T00:01:22;9.97;;;8.97;;
55350;SDS011;62194;49.480;10.986;2023-05-23T00:01:29;10.23;;;9.00;;
55350;SDS011;62194;49.480;10.986;2023-05-23T00:01:35;10.32;;;9.02;;
55350;SDS011;62194;49.480;10.986;2023-05-23T00:01:41;10.80;;;9.20;;
55350;SDS011;62194;49.480;10.986;2023-05-23T00:01:47;10.57;;;8.98;;
55350;SDS011;62194;49.480;10.986;2023-05-23T00:01:53;10.70;;;8.75;;
55350;SDS011;62194;49.480;10.986;2023-05-23T00:01:59;10.20;;;8.85;;
55350;SDS011;62194;49.480;10.986;2023-05-23T00:02:05;10.20;;;8.97;;
55350;SDS011;62194;49.480;10.986;2023-05-23T00:02:12;10.04;;;8.94;;
55350;SDS011;62194;49.480;10.986;2023-05-23T00:02:19;10.40;;;9.40;;
55350;SDS011;62194;49.480;10.986;2023-05-23T00:02:24;10.67;;;9.60;;
55350;SDS011;62194;49.480;10.986;2023-05-23T00:02:30;10.57;;;9.55;;
55350;SDS011;62194;49.480;10.986;2023-05-23T00:02:35;10.43;;;9.43;;
55350;SDS011;62194;49.480;10.986;2023-05-23T00:02:44;10.60;;;9.50;;
55350;SDS011;62194;49.480;10.986;2023-05-23T00:02:50;11.00;;;9.43;;
55350;SDS011;62194;49.480;10.986;2023-05-23T00:02:56;10.98;;;9.52;;
55350;SDS011;62194;49.480;10.986;2023-05-23T00:03:02;11.23;;;9.43;;
55350;SDS011;62194;49.480;10.986;2023-05-23T00:03:09;10.90;;;9.18;;
55350;SDS011;62194;49.480;10.986;2023-05-23T00:03:14;10.10;;;8.90;;
55350;SDS011;62194;49.480;10.986;2023-05-23T00:03:20;9.87;;;8.87;;
55350;SDS011;62194;49.480;10.986;2023-05-23T00:03:28;9.78;;;8.78;;
55350;SDS011;62194;49.480;10.986;2023-05-23T00:03:35;10.17;;;9.17;;
55350;SDS011;62194;49.480;10.986;2023-05-23T00:03:41;10.30;;;9.30;;
55350;SDS011;62194;49.480;10.986;2023-05-23T00:03:47;10.60;;;9.50;;
55350;SDS011;62194;49.480;10.986;2023-05-23T00:03:53;10.50;;;9.38;;
55350;SDS011;62194;49.480;10.986;2023-05-23T00:04:00;10.64;;;9.34;;
55350;SDS011;62194;49.480;10.986;2023-05-23T00:04:05;10.53;;;9.40;;
55350;SDS011;62194;49.480;10.986;2023-05-23T00:04:11;10.82;;;9.40;;
55350;SDS011;62194;49.480;10.986;2023-05-23T00:04:22;10.86;;;9.21;;
55350;SDS011;62194;49.480;10.986;2023-05-23T00:04:30;10.48;;;9.10;;
55350;SDS011;62194;49.480;10.986;2023-05-23T00:04:36;10.38;;;9.05;;
55350;SDS011;62194;49.480;10.986;2023-05-23T00:04:42;10.05;;;9.00;;
55350;SDS011;62194;49.480;10.986;2023-05-23T00:04:48;10.10;;;9.10;;
55350;SDS011;62194;49.480;10.986;2023-05-23T00:04:53;10.27;;;9.20;;
55350;SDS011;62194;49.480;10.986;2023-05-23T00:05:02;10.34;;;9.29;;
55350;SDS011;62194;49.480;10.986;2023-05-23T00:05:07;10.38;;;9.27;;
55350;SDS011;62194;49.480;10.986;2023-05-23T00:05:13;10.27;;;9.20;;
55350;SDS011;62194;49.480;10.986;2023-05-23T00:05:19;10.43;;;9.33;;
55350;SDS011;62194;49.480;10.986;2023-05-23T00:05:25;10.25;;;9.25;;
55350;SDS011;62194;49.480;10.986;2023-05-23T00:05:30;10.25;;;9.25;;
55350;SDS011;62194;49.480;10.986;2023-05-23T00:05:36;10.37;;;9.37;;
55350;SDS011;62194;49.480;10.986;2023-05-23T00:05:41;10.40;;;9.40;;
55350;SDS011;62194;49.480;10.986;2023-05-23T00:05:47;10.40;;;9.35;;
55350;SDS011;62194;49.480;10.986;2023-05-23T00:05:53;11.32;;;9.40;;
55350;SDS011;62194;49.480;10.986;2023-05-23T00:06:00;11.70;;;9.36;;
55350;SDS011;62194;49.480;10.986;2023-05-23T00:06:06;11.30;;;9.03;;
55350;SDS011;62194;49.480;10.986;2023-05-23T00:06:11;10.82;;;8.80;;
55350;SDS011;62194;49.480;10.986;2023-05-23T00:06:18;10.25;;;8.70;;
55350;SDS011;62194;49.480;10.986;2023-05-23T00:06:25;9.47;;;8.57;;
55350;SDS011;62194;49.480;10.986;2023-05-23T00:06:30;9.68;;;8.68;;
55350;SDS011;62194;49.480;10.986;2023-05-23T00:06:36;10.20;;;9.00;;
55350;SDS011;62194;49.480;10.986;2023-05-23T00:06:42;11.60;;;9.33;;
55350;SDS011;62194;49.480;10.986;2023-05-23T00:06:51;11.83;;;9.60;;
55350;SDS011;62194;49.480;10.986;2023-05-23T00:06:57;11.30;;;9.50;;
55350;SDS011;62194;49.480;10.986;2023-05-23T00:07:03;11.45;;;9.32;;
55350;SDS011;62194;49.480;10.986;2023-05-23T00:07:08;11.27;;;9.37;;
55350;SDS011;62194;49.480;10.986;2023-05-23T00:07:14;10.93;;;9.50;;
55350;SDS011;62194;49.480;10.986;2023-05-23T00:07:20;11.65;;;9.60;;
55350;SDS011;62194;49.480;10.986;2023-05-23T00:07:25;12.20;;;9.63;;
55350;SDS011;62194;49.480;10.986;2023-05-23T00:07:30;11.07;;;9.63;;
55350;SDS011;62194;49.480;10.986;2023-05-23T00:07:36;10.87;;;9.63;;
55350;SDS011;62194;49.480;10.986;2023-05-23T00:07:41;11.40;;;9.45;;
55350;SDS011;62194;49.480;10.986;2023-05-23T00:07:46;10.73;;;9.30;;
55350;SDS011;62194;49.480;10.986;2023-05-23T00:07:52;10.37;;;9.23;;
55350;SDS011;62194;49.480;10.986;2023-05-23T00:07:57;10.45;;;9.35;;
55350;SDS011;62194;49.480;10.986;2023-05-23T00:08:02;10.57;;;9.40;;
55350;SDS011;62194;49.480;10.986;2023-05-23T00:08:08;10.40;;;9.37;;
55350;SDS011;62194;49.480;10.986;2023-05-23T00:08:13;10.32;;;9.32;;
55350;SDS011;62194;49.480;10.986;2023-05-23T00:08:18;10.30;;;9.30;;
55350;SDS011;62194;49.480;10.986;2023-05-23T00:08:24;10.33;;;9.33;;
55350;SDS011;62194;49.480;10.986;2023-05-23T00:08:29;10.13;;;9.13;;
55350;SDS011;62194;49.480;10.986;2023-05-23T00:08:35;10.10;;;9.10;;
55350;SDS011;62194;49.480;10.986;2023-05-23T00:08:40;10.23;;;9.23;;
55350;SDS011;62194;49.480;10.986;2023-05-23T00:08:46;10.20;;;9.20;;
55350;SDS011;62194;49.480;10.986;2023-05-23T00:08:51;10.15;;;9.15;;
55350;SDS011;62194;49.480;10.986;2023-05-23T00:08:56;10.23;;;9.30;;
55350;SDS011;62194;49.480;10.986;2023-05-23T00:09:02;10.40;;;9.40;;
55350;SDS011;62194;49.480;10.986;2023-05-23T00:09:07;10.57;;;9.53;;
55350;SDS011;62194;49.480;10.986;2023-05-23T00:09:13;10.63;;;9.52;;
55350;SDS011;62194;49.480;10.986;2023-05-23T00:09:18;10.55;;;9.45;;
55350;SDS011;62194;49.480;10.986;2023-05-23T00:09:23;10.67;;;9.57;;
55350;SDS011;62194;49.480;10.986;2023-05-23T00:09:29;10.80;;;9.70;;
55350;SDS011;62194;49.480;10.986;2023-05-23T00:09:34;10.63;;;9.48;;
55350;SDS011;62194;49.480;10.986;2023-05-23T00:09:40;10.50;;;9.40;;
55350;SDS011;62194;49.480;10.986;2023-05-23T00:09:45;10.47;;;9.23;;
55350;SDS011;62194;49.480;10.986;2023-05-23T00:09:50;10.27;;;9.05;;
55350;SDS011;62194;49.480;10.986;2023-05-23T00:09:55;10.17;;;8.93;;
55350;SDS011;62194;49.480;10.986;2023-05-23T00:10:01;10.00;;;8.80;;
55350;SDS011;62194;49.480;10.986;2023-05-23T00:10:06;9.80;;;8.80;;
55350;SDS011;62194;49.480;10.986;2023-05-23T00:10:12;10.10;;;9.00;;
55350;SDS011;62194;49.480;10.986;2023-05-23T00:10:17;10.73;;;9.20;;
55350;SDS011;62194;49.480;10.986;2023-05-23T00:10:23;11.20;;;9.20;;
55350;SDS011;62194;49.480;10.986;2023-05-23T00:10:28;11.85;;;9.38;;
55350;SDS011;62194;49.480;10.986;2023-05-23T00:10:33;11.83;;;9.47;;
55350;SDS011;62194;49.480;10.986;2023-05-23T00:10:39;11.53;;;9.47;;
55350;SDS011;62194;49.480;10.986;2023-05-23T00:10:44;11.60;;;9.50;;
55350;SDS011;62194;49.480;10.986;2023-05-23T00:10:49;12.33;;;9.40;;
55350;SDS011;62194;49.480;10.986;2023-05-23T00:10:55;13.60;;;9.43;;
55350;SDS011;62194;49.480;10.986;2023-05-23T00:11:00;13.37;;;9.47;;
55350;SDS011;62194;49.480;10.986;2023-05-23T00:11:05;13.40;;;9.43;;
55350;SDS011;62194;49.480;10.986;2023-05-23T00:11:11;12.87;;;9.20;;
55350;SDS011;62194;49.480;10.986;2023-05-23T00:11:17;12.74;;;9.50;;
55350;SDS011;62194;49.480;10.986;2023-05-23T00:11:25;10.83;;;9.63;;
55350;SDS011;62194;49.480;10.986;2023-05-23T00:11:33;10.43;;;9.31;;
55350;SDS011;62194;49.480;10.986;2023-05-23T00:11:38;10.67;;;9.37;;
55350;SDS011;62194;49.480;10.986;2023-05-23T00:11:48;10.21;;;9.05;;
55350;SDS011;62194;49.480;10.986;2023-05-23T00:11:54;10.00;;;9.00;;
55350;SDS011;62194;49.480;10.986;2023-05-23T00:11:59;10.23;;;9.23;;
55350;SDS011;62194;49.480;10.986;2023-05-23T00:12:04;10.40;;;9.30;;
55350;SDS011;62194;49.480;10.986;2023-05-23T00:12:10;10.38;;;9.20;;
55350;SDS011;62194;49.480;10.986;2023-05-23T00:12:16;10.52;;;9.25;;
55350;SDS011;62194;49.480;10.986;2023-05-23T00:12:21;10.80;;;9.20;;
55350;SDS011;62194;49.480;10.986;2023-05-23T00:12:26;11.40;;;9.23;;
55350;SDS011;62194;49.480;10.986;2023-05-23T00:12:33;11.33;;;9.30;;
55350;SDS011;62194;49.480;10.986;2023-05-23T00:12:38;10.87;;;9.37;;
55350;SDS011;62194;49.480;10.986;2023-05-23T00:12:46;11.05;;;9.37;;
55350;SDS011;62194;49.480;10.986;2023-05-23T00:12:52;11.23;;;9.33;;
55350;SDS011;62194;49.480;10.986;2023-05-23T00:12:57;10.70;;;9.15;;
55350;SDS011;62194;49.480;10.986;2023-05-23T00:13:02;10.53;;;9.20;;
55350;SDS011;62194;49.480;10.986;2023-05-23T00:13:09;10.74;;;9.30;;
55350;SDS011;62194;49.480;10.986;2023-05-23T00:13:16;10.46;;;9.34;;
55350;SDS011;62194;49.480;10.986;2023-05-23T00:13:22;10.23;;;9.23;;
55350;SDS011;62194;49.480;10.986;2023-05-23T00:13:27;10.30;;;9.30;;
55350;SDS011;62194;49.480;10.986;2023-05-23T00:13:33;10.20;;;9.20;;
55350;SDS011;62194;49.480;10.986;2023-05-23T00:13:38;10.20;;;9.20;;
55350;SDS011;62194;49.480;10.986;2023-05-23T00:13:43;10.17;;;9.17;;
55350;SDS011;62194;49.480;10.986;2023-05-23T00:13:49;10.40;;;9.38;;
55350;SDS011;62194;49.480;10.986;2023-05-23T00:13:55;10.55;;;9.48;;
55350;SDS011;62194;49.480;10.986;2023-05-23T00:14:04;10.47;;;9.47;;
55350;SDS011;62194;49.480;10.986;2023-05-23T00:14:12;10.42;;;9.40;;
55350;SDS011;62194;49.480;10.986;2023-05-23T00:14:18;10.35;;;9.15;;
55350;SDS011;62194;49.480;10.986;2023-05-23T00:14:24;10.18;;;9.00;;
55350;SDS011;62194;49.480;10.986;2023-05-23T00:14:30;10.20;;;9.07;;
55350;SDS011;62194;49.480;10.986;2023-05-23T00:14:37;10.38;;;9.00;;
55350;SDS011;62194;49.480;10.986;2023-05-23T00:14:44;10.83;;;8.97;;
55350;SDS011;62194;49.480;10.986;2023-05-23T00:14:49;10.53;;;9.10;;
55350;SDS011;62194;49.480;10.986;2023-05-23T00:14:57;10.37;;;9.03;;
55350;SDS011;62194;49.480;10.986;2023-05-23T00:15:03;10.05;;;8.95;;
55350;SDS011;62194;49.480;10.986;2023-05-23T00:15:08;10.05;;;9.02;;
55350;SDS011;62194;49.480;10.986;2023-05-23T00:15:14;10.07;;;9.07;;
55350;SDS011;62194;49.480;10.986;2023-05-23T00:15:19;10.10;;;9.10;;
55350;SDS011;62194;49.480;10.986;2023-05-23T00:15:24;10.27;;;9.20;;
55350;SDS011;62194;49.480;10.986;2023-05-23T00:15:30;10.30;;;9.20;;
55350;SDS011;62194;49.480;10.986;2023-05-23T00:15:38;10.48;;;9.38;;
55350;SDS011;62194;49.480;10.986;2023-05-23T00:15:45;11.15;;;9.55;;
55350;SDS011;62194;49.480;10.986;2023-05-23T00:15:52;10.80;;;9.60;;
55350;SDS011;62194;49.480;10.986;2023-05-23T00:15:57;10.73;;;9.60;;
55350;SDS011;62194;49.480;10.986;2023-05-23T00:16:03;10.68;;;9.40;;
55350;SDS011;62194;49.480;10.986;2023-05-23T00:16:08;10.47;;;9.30;;
55350;SDS011;62194;49.480;10.986;2023-05-23T00:16:14;10.30;;;9.25;;
55350;SDS011;62194;49.480;10.986;2023-05-23T00:16:20;10.30;;;9.20;;
55350;SDS011;62194;49.480;10.986;2023-05-23T00:16:26;10.17;;;9.13;;
55350;SDS011;62194;49.480;10.986;2023-05-23T00:16:32;10.27;;;9.18;;
55350;SDS011;62194;49.480;10.986;2023-05-23T00:16:38;10.30;;;9.20;;
55350;SDS011;62194;49.480;10.986;2023-05-23T00:16:45;10.60;;;9.30;;
55350;SDS011;62194;49.480;10.986;2023-05-23T00:16:53;11.35;;;9.30;;
55350;SDS011;62194;49.480;10.986;2023-05-23T00:16:58;11.55;;;9.30;;
55350;SDS011;62194;49.480;10.986;2023-05-23T00:17:05;12.02;;;9.35;;
55350;SDS011;62194;49.480;10.986;2023-05-23T00:17:12;11.94;;;9.26;;
55350;SDS011;62194;49.480;10.986;2023-05-23T00:17:17;11.10;;;8.93;;
55350;SDS011;62194;49.480;10.986;2023-05-23T00:17:22;11.57;;;9.00;;
55350;SDS011;62194;49.480;10.986;2023-05-23T00:17:29;11.60;;;9.13;;
55350;SDS011;62194;49.480;10.986;2023-05-23T00:17:34;11.57;;;9.20;;
55350;SDS011;62194;49.480;10.986;2023-05-23T00:17:43;11.29;;;9.13;;
55350;SDS011;62194;49.480;10.986;2023-05-23T00:17:48;10.52;;;9.23;;
55350;SDS011;62194;49.480;10.986;2023-05-23T00:17:54;10.30;;;9.30;;
55350;SDS011;62194;49.480;10.986;2023-05-23T00:17:59;10.13;;;9.13;;
55350;SDS011;62194;49.480;10.986;2023-05-23T00:18:04;10.00;;;9.00;;
55350;SDS011;62194;49.480;10.986;2023-05-23T00:18:12;10.00;;;9.00;;
55350;SDS011;62194;49.480;10.986;2023-05-23T00:18:19;10.00;;;8.90;;
55350;SDS011;62194;49.480;10.986;2023-05-23T00:18:24;10.63;;;9.13;;
55350;SDS011;62194;49.480;10.986;2023-05-23T00:18:29;11.02;;;9.30;;
55350;SDS011;62194;49.480;10.986;2023-05-23T00:18:35;10.80;;;9.40;;
55350;SDS011;62194;49.480;10.986;2023-05-23T00:18:41;10.84;;;9.56;;
55350;SDS011;62194;49.480;10.986;2023-05-23T00:18:49;11.03;;;9.90;;
55350;SDS011;62194;49.480;10.986;2023-05-23T00:18:55;10.43;;;9.40;;
55350;SDS011;62194;49.480;10.986;2023-05-23T00:19:03;9.98;;;8.98;;
55350;SDS011;62194;49.480;10.986;2023-05-23T00:19:09;10.23;;;8.90;;
55350;SDS011;62194;49.480;10.986;2023-05-23T00:19:15;12.43;;;8.87;;
55350;SDS011;62194;49.480;10.986;2023-05-23T00:19:20;12.52;;;8.82;;
55350;SDS011;62194;49.480;10.986;2023-05-23T00:19:26;12.83;;;9.07;;
55350;SDS011;62194;49.480;10.986;2023-05-23T00:19:31;12.97;;;9.30;;
55350;SDS011;62194;49.480;10.986;2023-05-23T00:19:40;12.46;;;9.21;;
55350;SDS011;62194;49.480;10.986;2023-05-23T00:19:45;10.07;;;8.90;;
55350;SDS011;62194;49.480;10.986;2023-05-23T00:19:50;9.88;;;8.88;;
55350;SDS011;62194;49.480;10.986;2023-05-23T00:19:56;9.80;;;8.80;;
55350;SDS011;62194;49.480;10.986;2023-05-23T00:20:02;9.73;;;8.73;;
55350;SDS011;62194;49.480;10.986;2023-05-23T00:20:09;10.00;;;8.90;;
55350;SDS011;62194;49.480;10.986;2023-05-23T00:20:15;9.92;;;8.92;;
55350;SDS011;62194;49.480;10.986;2023-05-23T00:20:21;10.10;;;9.10;;
55350;SDS011;62194;49.480;10.986;2023-05-23T00:20:26;10.30;;;9.23;;
55350;SDS011;62194;49.480;10.986;2023-05-23T00:20:32;10.60;;;9.37;;
55350;SDS011;62194;49.480;10.986;2023-05-23T00:20:40;10.86;;;9.34;;
55350;SDS011;62194;49.480;10.986;2023-05-23T00:20:46;11.33;;;9.23;;
55350;SDS011;62194;49.480;10.986;2023-05-23T00:20:51;11.03;;;9.03;;
55350;SDS011;62194;49.480;10.986;2023-05-23T00:20:57;10.68;;;9.00;;
55350;SDS011;62194;49.480;10.986;2023-05-23T00:21:03;10.10;;;9.00;;
55350;SDS011;62194;49.480;10.986;2023-05-23T00:21:08;9.98;;;8.93;;
55350;SDS011;62194;49.480;10.986;2023-05-23T00:21:14;10.20;;;9.20;;
55350;SDS011;62194;49.480;10.986;2023-05-23T00:21:19;10.23;;;9.23;;
55350;SDS011;62194;49.480;10.986;2023-05-23T00:21:25;10.17;;;9.17;;
55350;SDS011;62194;49.480;10.986;2023-05-23T00:21:31;10.00;;;9.03;;
55350;SDS011;62194;49.480;10.986;2023-05-23T00:21:37;10.23;;;9.23;;
55350;SDS011;62194;49.480;10.986;2023-05-23T00:21:46;9.83;;;8.93;;
55350;SDS011;62194;49.480;10.986;2023-05-23T00:21:52;9.86;;;8.86;;
55350;SDS011;62194;49.480;10.986;2023-05-23T00:22:00;9.90;;;8.90;;
55350;SDS011;62194;49.480;10.986;2023-05-23T00:22:07;9.75;;;8.75;;
55350;SDS011;62194;49.480;10.986;2023-05-23T00:22:12;10.43;;;9.00;;
55350;SDS011;62194;49.480;10.986;2023-05-23T00:22:20;10.22;;;9.12;;
55350;SDS011;62194;49.480;10.986;2023-05-23T00:22:26;10.60;;;9.50;;
55350;SDS011;62194;49.480;10.986;2023-05-23T00:22:31;10.50;;;9.32;;
55350;SDS011;62194;49.480;10.986;2023-05-23T00:22:37;10.67;;;9.40;;
55350;SDS011;62194;49.480;10.986;2023-05-23T00:22:46;10.61;;;9.39;;
55350;SDS011;62194;49.480;10.986;2023-05-23T00:22:52;11.00;;;9.30;;
55350;SDS011;62194;49.480;10.986;2023-05-23T00:22:58;10.80;;;9.35;;
55350;SDS011;62194;49.480;10.986;2023-05-23T00:23:03;11.30;;;9.37;;
55350;SDS011;62194;49.480;10.986;2023-05-23T00:23:09;11.10;;;9.20;;
55350;SDS011;62194;49.480;10.986;2023-05-23T00:23:15;11.64;;;9.28;;
55350;SDS011;62194;49.480;10.986;2023-05-23T00:23:24;10.74;;;9.20;;
55350;SDS011;62194;49.480;10.986;2023-05-23T00:23:30;11.10;;;9.33;;
55350;SDS011;62194;49.480;10.986;2023-05-23T00:23:37;11.57;;;9.63;;
55350;SDS011;62194;49.480;10.986;2023-05-23T00:23:46;10.86;;;9.44;;
55350;SDS011;62194;49.480;10.986;2023-05-23T00:23:51;10.90;;;9.50;;
55350;SDS011;62194;49.480;10.986;2023-05-23T00:23:57;10.98;;;9.55;;
55350;SDS011;62194;49.480;10.986;2023-05-23T00:24:03;10.27;;;9.20;;
55350;SDS011;62194;49.480;10.986;2023-05-23T00:24:08;10.20;;;9.20;;
55350;SDS011;62194;49.480;10.986;2023-05-23T00:24:14;10.18;;;9.18;;
55350;SDS011;62194;49.480;10.986;2023-05-23T00:24:22;10.00;;;9.00;;
55350;SDS011;62194;49.480;10.986;2023-05-23T00:24:28;9.87;;;8.87;;
55350;SDS011;62194;49.480;10.986;2023-05-23T00:24:33;10.02;;;9.02;;
55350;SDS011;62194;49.480;10.986;2023-05-23T00:24:38;9.87;;;8.87;;
55350;SDS011;62194;49.480;10.986;2023-05-23T00:24:43;9.87;;;8.87;;
55350;SDS011;62194;49.480;10.986;2023-05-23T00:24:49;9.80;;;8.80;;
55350;SDS011;62194;49.480;10.986;2023-05-23T00:24:54;9.80;;;8.80;;
55350;SDS011;62194;49.480;10.986;2023-05-23T00:25:01;10.08;;;8.96;;
55350;SDS011;62194;49.480;10.986;2023-05-23T00:25:07;10.53;;;8.90;;
55350;SDS011;62194;49.480;10.986;2023-05-23T00:25:13;10.93;;;9.10;;
55350;SDS011;62194;49.480;10.986;2023-05-23T00:25:19;11.32;;;9.25;;
55350;SDS011;62194;49.480;10.986;2023-05-23T00:25:25;10.80;;;9.18;;
55350;SDS011;62194;49.480;10.986;2023-05-23T00:25:37;10.06;;;9.02;;
55350;SDS011;62194;49.480;10.986;2023-05-23T00:25:45;10.00;;;9.00;;
55350;SDS011;62194;49.480;10.986;2023-05-23T00:25:56;9.88;;;8.96;;
55350;SDS011;62194;49.480;10.986;2023-05-23T00:26:02;10.20;;;9.20;;
55350;SDS011;62194;49.480;10.986;2023-05-23T00:26:08;10.30;;;9.30;;
55350;SDS011;62194;49.480;10.986;2023-05-23T00:26:13;10.32;;;9.32;;
55350;SDS011;62194;49.480;10.986;2023-05-23T00:26:19;10.35;;;9.30;;
55350;SDS011;62194;49.480;10.986;2023-05-23T00:26:25;10.55;;;9.45;;
55350;SDS011;62194;49.480;10.986;2023-05-23T00:26:33;10.46;;;9.37;;
55350;SDS011;62194;49.480;10.986;2023-05-23T00:26:39;10.23;;;9.23;;
55350;SDS011;62194;49.480;10.986;2023-05-23T00:26:45;10.10;;;9.03;;
55350;SDS011;62194;49.480;10.986;2023-05-23T00:26:50;10.25;;;9.10;;
55350;SDS011;62194;49.480;10.986;2023-05-23T00:26:56;10.15;;;9.07;;
55350;SDS011;62194;49.480;10.986;2023-05-23T00:27:02;10.37;;;9.13;;
55350;SDS011;62194;49.480;10.986;2023-05-23T00:27:08;10.87;;;9.27;;
55350;SDS011;62194;49.480;10.986;2023-05-23T00:27:13;10.73;;;9.23;;
55350;SDS011;62194;49.480;10.986;2023-05-23T00:27:18;10.32;;;9.23;;
55350;SDS011;62194;49.480;10.986;2023-05-23T00:27:24;10.30;;;9.20;;
55350;SDS011;62194;49.480;10.986;2023-05-23T00:27:29;10.33;;;9.20;;
55350;SDS011;62194;49.480;10.986;2023-05-23T00:27:35;10.48;;;9.15;;
55350;SDS011;62194;49.480;10.986;2023-05-23T00:27:40;10.47;;;9.17;;
55350;SDS011;62194;49.480;10.986;2023-05-23T00:27:45;10.43;;;9.18;;
55350;SDS011;62194;49.480;10.986;2023-05-23T00:27:51;11.30;;;9.27;;
55350;SDS011;62194;49.480;10.986;2023-05-23T00:27:56;11.33;;;9.17;;
55350;SDS011;62194;49.480;10.986;2023-05-23T00:28:02;11.23;;;9.17;;
55350;SDS011;62194;49.480;10.986;2023-05-23T00:28:08;11.15;;;9.17;;
55350;SDS011;62194;49.480;10.986;2023-05-23T00:28:13;10.93;;;9.13;;
55350;SDS011;62194;49.480;10.986;2023-05-23T00:28:20;10.63;;;9.00;;
55350;SDS011;62194;49.480;10.986;2023-05-23T00:28:26;10.63;;;9.07;;
55350;SDS011;62194;49.480;10.986;2023-05-23T00:28:31;10.75;;;9.02;;
55350;SDS011;62194;49.480;10.986;2023-05-23T00:28:37;10.67;;;9.07;;
55350;SDS011;62194;49.480;10.986;2023-05-23T00:28:42;11.10;;;9.20;;
55350;SDS011;62194;49.480;10.986;2023-05-23T00:28:47;10.98;;;9.43;;
55350;SDS011;62194;49.480;10.986;2023-05-23T00:28:52;11.20;;;9.50;;
55350;SDS011;62194;49.480;10.986;2023-05-23T00:29:00;10.62;;;9.52;;
55350;SDS011;62194;49.480;10.986;2023-05-23T00:29:05;10.67;;;9.60;;
55350;SDS011;62194;49.480;10.986;2023-05-23T00:29:10;10.55;;;9.55;;
55350;SDS011;62194;49.480;10.986;2023-05-23T00:29:22;10.53;;;9.50;;
55350;SDS011;62194;49.480;10.986;2023-05-23T00:29:27;10.23;;;9.23;;
55350;SDS011;62194;49.480;10.986;2023-05-23T00:29:32;10.13;;;9.10;;
55350;SDS011;62194;49.480;10.986;2023-05-23T00:29:38;10.00;;;9.00;;
55350;SDS011;62194;49.480;10.986;2023-05-23T00:29:43;10.00;;;9.00;;
55350;SDS011;62194;49.480;10.986;2023-05-23T00:29:48;10.05;;;8.98;;
55350;SDS011;62194;49.480;10.986;2023-05-23T00:29:53;10.73;;;9.13;;
55350;SDS011;62194;49.480;10.986;2023-05-23T00:29:59;10.93;;;9.30;;
55350;SDS011;62194;49.480;10.986;2023-05-23T00:30:04;11.40;;;9.17;;
55350;SDS011;62194;49.480;10.986;2023-05-23T00:30:10;11.77;;;9.20;;
55350;SDS011;62194;49.480;10.986;2023-05-23T00:30:15;11.77;;;9.05;;
55350;SDS011;62194;49.480;10.986;2023-05-23T00:30:21;11.10;;;8.83;;
55350;SDS011;62194;49.480;10.986;2023-05-23T00:30:28;10.48;;;8.52;;
55350;SDS011;62194;49.480;10.986;2023-05-23T00:30:34;10.47;;;8.55;;
55350;SDS011;62194;49.480;10.986;2023-05-23T00:30:40;10.10;;;8.40;;
55350;SDS011;62194;49.480;10.986;2023-05-23T00:30:45;9.85;;;8.55;;
55350;SDS011;62194;49.480;10.986;2023-05-23T00:30:52;10.48;;;8.84;;
55350;SDS011;62194;49.480;10.986;2023-05-23T00:30:58;10.30;;;9.10;;
55350;SDS011;62194;49.480;10.986;2023-05-23T00:31:03;10.07;;;9.07;;
55350;SDS011;62194;49.480;10.986;2023-05-23T00:31:08;10.27;;;9.27;;
55350;SDS011;62194;49.480;10.986;2023-05-23T00:31:13;10.30;;;9.27;;
55350;SDS011;62194;49.480;10.986;2023-05-23T00:31:19;10.23;;;9.23;;
55350;SDS011;62194;49.480;10.986;2023-05-23T00:31:24;10.20;;;9.20;;
55350;SDS011;62194;49.480;10.986;2023-05-23T00:31:30;10.20;;;9.20;;
55350;SDS011;62194;49.480;10.986;2023-05-23T00:31:35;10.18;;;9.20;;
55350;SDS011;62194;49.480;10.986;2023-05-23T00:31:41;9.80;;;8.90;;
55350;SDS011;62194;49.480;10.986;2023-05-23T00:31:50;9.74;;;8.81;;
55350;SDS011;62194;49.480;10.986;2023-05-23T00:31:55;10.02;;;8.95;;
55350;SDS011;62194;49.480;10.986;2023-05-23T00:32:00;10.07;;;8.83;;
55350;SDS011;62194;49.480;10.986;2023-05-23T00:32:05;10.47;;;8.77;;
55350;SDS011;62194;49.480;10.986;2023-05-23T00:32:11;10.30;;;8.82;;
55350;SDS011;62194;49.480;10.986;2023-05-23T00:32:16;10.03;;;8.80;;
55350;SDS011;62194;49.480;10.986;2023-05-23T00:32:21;9.80;;;8.80;;
55350;SDS011;62194;49.480;10.986;2023-05-23T00:32:27;9.80;;;8.80;;
55350;SDS011;62194;49.480;10.986;2023-05-23T00:32:32;10.23;;;9.20;;
55350;SDS011;62194;49.480;10.986;2023-05-23T00:32:38;10.45;;;9.40;;
55350;SDS011;62194;49.480;10.986;2023-05-23T00:32:43;10.53;;;9.43;;
55350;SDS011;62194;49.480;10.986;2023-05-23T00:32:48;10.73;;;9.43;;
55350;SDS011;62194;49.480;10.986;2023-05-23T00:32:53;10.93;;;9.40;;
55350;SDS011;62194;49.480;10.986;2023-05-23T00:32:59;10.82;;;9.27;;
55350;SDS011;62194;49.480;10.986;2023-05-23T00:33:04;10.10;;;8.97;;
55350;SDS011;62194;49.480;10.986;2023-05-23T00:33:10;9.93;;;8.88;;
55350;SDS011;62194;49.480;10.986;2023-05-23T00:33:18;10.02;;;8.95;;
55350;SDS011;62194;49.480;10.986;2023-05-23T00:33:25;9.88;;;8.88;;
55350;SDS011;62194;49.480;10.986;2023-05-23T00:33:31;9.85;;;8.85;;
55350;SDS011;62194;49.480;10.986;2023-05-23T00:33:38;10.02;;;9.02;;
55350;SDS011;62194;49.480;10.986;2023-05-23T00:33:43;9.87;;;8.87;;
55350;SDS011;62194;49.480;10.986;2023-05-23T00:33:48;9.67;;;8.70;;
55350;SDS011;62194;49.480;10.986;2023-05-23T00:33:54;9.50;;;8.60;;
55350;SDS011;62194;49.480;10.986;2023-05-23T00:33:59;9.60;;;8.70;;
55350;SDS011;62194;49.480;10.986;2023-05-23T00:34:04;9.47;;;8.57;;
55350;SDS011;62194;49.480;10.986;2023-05-23T00:34:09;9.70;;;8.80;;
55350;SDS011;62194;49.480;10.986;2023-05-23T00:34:15;9.82;;;8.82;;
55350;SDS011;62194;49.480;10.986;2023-05-23T00:34:23;10.27;;;8.95;;
55350;SDS011;62194;49.480;10.986;2023-05-23T00:34:28;10.83;;;9.03;;
55350;SDS011;62194;49.480;10.986;2023-05-23T00:34:33;11.50;;;9.17;;
55350;SDS011;62194;49.480;10.986;2023-05-23T00:34:39;12.10;;;9.15;;
55350;SDS011;62194;49.480;10.986;2023-05-23T00:34:44;11.77;;;9.10;;
55350;SDS011;62194;49.480;10.986;2023-05-23T00:34:49;11.33;;;9.07;;
55350;SDS011;62194;49.480;10.986;2023-05-23T00:34:58;10.21;;;9.03;;
55350;SDS011;62194;49.480;10.986;2023-05-23T00:35:03;9.83;;;8.83;;
55350;SDS011;62194;49.480;10.986;2023-05-23T00:35:09;9.47;;;8.57;;
55350;SDS011;62194;49.480;10.986;2023-05-23T00:35:14;9.73;;;8.73;;
55350;SDS011;62194;49.480;10.986;2023-05-23T00:35:19;9.77;;;8.77;;